Time;durP1;ratioP1;P1;durP2;ratioP2;P2;SDS_P1;SDS_P2;PMS_P1;PMS_P2;Temp;Humidity;BMP_temperature;BMP_pressure;BME280_temperature;BME280_humidity;BME280_pressure;Samples;Min_cycle;Max_cycle;Signal;HPM_P1;HPM_P2
2022/07/01 00:01:40;;;;;;;6.13;2.50;;;;;;;21.50;45.40;98397.00;5074967;28;20486;-93
2022/07/01 00:04:05;;;;;;;;;;;;;;;21.57;45.93;98422.56;5074991;28;20044;-93
2022/07/01 00:06:31;;;;;;;4.47;2.72;;;;;;;21.45;45.42;98415.44;5074816;28;19966;-95
2022/07/01 00:08:57;;;;;;;4.13;2.35;;;;;;;21.36;45.22;98416.97;5074709;28;20113;-93
2022/07/01 00:11:23;;;;;;;4.38;2.53;;;;;;;21.28;45.21;98422.09;5074372;28;20119;-93
2022/07/01 00:13:49;;;;;;;5.28;2.42;;;;;;;21.26;45.75;98419.50;5074333;28;20516;-93
2022/07/01 00:16:15;;;;;;;3.78;2.40;;;;;;;21.11;46.58;98396.34;5074849;28;20132;-91
2022/07/01 00:18:43;;;;;;;4.38;2.50;;;;;;;21.12;46.38;98406.16;5074359;28;20062;-92
2022/07/01 00:21:09;;;;;;;4.13;2.50;;;;;;;21.05;46.89;98408.47;5074454;28;20079;-93
2022/07/01 00:23:36;;;;;;;5.05;2.47;;;;;;;21.07;47.00;98420.03;5078885;28;20032;-93
2022/07/01 00:26:02;;;;;;;3.92;2.90;;;;;;;21.04;46.73;98422.97;5090301;28;20123;-93
2022/07/01 00:28:28;;;;;;;6.10;2.70;;;;;;;20.79;47.41;98398.78;5074115;28;20095;-93
2022/07/01 00:30:53;;;;;;;7.13;2.75;;;;;;;20.87;47.42;98412.56;5074173;28;20059;-95
2022/07/01 00:33:19;;;;;;;4.65;2.50;;;;;;;20.78;46.84;98402.47;5074145;28;20044;-93
2022/07/01 00:35:46;;;;;;;5.28;2.60;;;;;;;20.84;46.90;98416.38;5074198;28;20045;-94
2022/07/01 00:38:12;;;;;;;3.97;2.55;;;;;;;20.69;47.47;98396.75;5074754;28;20036;-94
2022/07/01 00:40:38;;;;;;;6.05;2.78;;;;;;;20.76;47.72;98396.31;5074464;28;20045;-93
2022/07/01 00:43:04;;;;;;;7.18;2.72;;;;;;;20.95;47.36;98439.00;5074361;28;20052;-93
2022/07/01 00:45:30;;;;;;;5.30;2.92;;;;;;;20.95;47.48;98437.19;5074262;28;20490;-93
2022/07/01 00:47:56;;;;;;;4.20;2.88;;;;;;;20.91;47.06;98430.28;5074207;28;20037;-94
2022/07/01 00:50:22;;;;;;;5.30;2.97;;;;;;;20.92;47.35;98434.72;5074259;28;20028;-94
2022/07/01 00:52:49;;;;;;;7.00;2.70;;;;;;;20.86;47.50;98427.06;5073817;28;20047;-91
2022/07/01 00:55:16;;;;;;;8.75;2.88;;;;;;;20.83;47.67;98438.97;5074451;28;20067;-91
2022/07/01 00:57:43;;;;;;;5.82;2.90;;;;;;;20.76;47.34;98436.84;5056654;28;20052;-93
2022/07/01 01:00:12;;;;;;;6.72;2.80;;;;;;;20.67;48.27;98447.34;5073917;28;20397;-94
2022/07/01 01:02:37;;;;;;;;;;;;;;;20.65;48.23;98451.16;5074469;28;20401;-93
2022/07/01 01:05:04;;;;;;;6.40;3.38;;;;;;;20.49;48.58;98436.03;5073982;28;20023;-93
2022/07/01 01:07:31;;;;;;;4.28;2.80;;;;;;;20.45;49.00;98447.13;5064423;28;20045;-93
2022/07/01 01:09:59;;;;;;;6.18;2.97;;;;;;;20.41;49.37;98464.56;5074149;28;20040;-92
2022/07/01 01:12:26;;;;;;;7.53;3.03;;;;;;;20.41;49.21;98459.16;5073843;28;20060;-93
2022/07/01 01:14:52;;;;;;;5.88;2.92;;;;;;;20.25;49.74;98457.53;5073828;28;20072;-93
2022/07/01 01:17:20;;;;;;;4.15;2.72;;;;;;;20.15;50.46;98469.16;5073860;28;20041;-92
2022/07/01 01:19:46;;;;;;;7.10;2.80;;;;;;;19.99;50.40;98453.16;5073852;28;20041;-94
2022/07/01 01:22:16;;;;;;;9.40;3.15;;;;;;;19.98;49.54;98465.78;5073926;28;20067;-94
2022/07/01 01:24:43;;;;;;;5.60;3.10;;;;;;;19.98;50.10;98465.78;5073856;28;20068;-95
2022/07/01 01:27:09;;;;;;;6.45;3.15;;;;;;;19.99;50.54;98486.38;5073720;28;20036;-93
2022/07/01 01:29:36;;;;;;;6.22;3.05;;;;;;;19.80;50.59;98467.06;5073479;28;20502;-94
2022/07/01 01:32:03;;;;;;;5.30;2.72;;;;;;;19.74;51.33;98470.22;5073467;28;20121;-92
2022/07/01 01:37:29;;;;;;;7.78;3.20;;;;;;;19.74;52.17;98486.41;5107784;27;20369;-95
2022/07/01 01:39:55;;;;;;;7.70;3.20;;;;;;;19.70;52.85;98494.69;5091651;28;20405;-94
2022/07/01 01:42:21;;;;;;;7.00;3.50;;;;;;;19.57;53.56;98484.81;5091346;28;20040;-93
2022/07/01 01:44:47;;;;;;;5.00;3.05;;;;;;;19.61;53.62;98505.22;5091582;28;20107;-94
2022/07/01 01:47:13;;;;;;;5.90;3.20;;;;;;;19.58;53.95;98495.50;5091650;28;20044;-95
2022/07/01 01:49:39;;;;;;;11.80;3.33;;;;;;;19.48;54.61;98506.06;5091615;28;20505;-92
2022/07/01 01:52:06;;;;;;;6.82;3.25;;;;;;;19.38;55.00;98496.84;5091340;28;20516;-96
2022/07/01 01:54:36;;;;;;;5.75;3.25;;;;;;;19.35;55.10;98496.22;5091388;28;20040;-94
2022/07/01 01:57:02;;;;;;;7.43;3.38;;;;;;;19.28;55.20;98491.22;5091252;28;20113;-94
2022/07/01 01:59:28;;;;;;;6.72;3.40;;;;;;;19.33;54.95;98490.06;5091284;28;20064;-92
2022/07/01 02:01:54;;;;;;;6.10;3.58;;;;;;;19.41;54.78;98509.25;5091307;28;20144;-93
2022/07/01 02:04:20;;;;;;;8.68;3.58;;;;;;;19.14;54.96;98466.16;5091267;28;20055;-93
2022/07/01 02:06:46;;;;;;;6.35;3.60;;;;;;;19.17;55.27;98472.22;5091532;28;20067;-92
2022/07/01 02:09:13;;;;;;;5.40;3.25;;;;;;;19.14;55.58;98479.63;5091008;28;20474;-93
2022/07/01 02:11:40;;;;;;;5.82;3.50;;;;;;;19.01;55.42;98466.97;5091245;28;20048;-95
2022/07/01 02:14:06;;;;;;;6.20;3.33;;;;;;;19.14;56.07;98491.28;5091074;28;20049;-95
2022/07/01 02:16:32;;;;;;;6.88;3.22;;;;;;;19.10;55.63;98492.44;5090821;28;20037;-93
2022/07/01 02:18:57;;;;;;;7.35;3.20;;;;;;;18.89;55.42;98473.19;5090969;28;20048;-93
2022/07/01 02:21:23;;;;;;;7.00;3.60;;;;;;;18.75;55.30;98457.03;5090981;28;20051;-94
2022/07/01 02:23:51;;;;;;;6.70;3.10;;;;;;;18.81;55.74;98492.53;5090936;28;20489;-95
2022/07/01 02:26:17;;;;;;;6.50;3.35;;;;;;;18.84;56.88;98507.63;5091044;28;20032;-93
2022/07/01 02:28:44;;;;;;;5.72;2.90;;;;;;;18.75;56.86;98500.13;5090885;28;20040;-93
2022/07/01 02:31:10;;;;;;;6.18;3.08;;;;;;;18.59;56.31;98484.94;5090764;28;20066;-94
2022/07/01 02:33:35;;;;;;;5.22;3.15;;;;;;;18.65;56.29;98519.56;5090616;28;20119;-92
2022/07/01 02:36:01;;;;;;;5.50;3.08;;;;;;;18.63;55.87;98521.50;5090386;28;20040;-95
2022/07/01 02:38:27;;;;;;;5.15;3.00;;;;;;;18.59;56.29;98517.25;5090708;28;20040;-95
2022/07/01 02:40:53;;;;;;;4.95;2.78;;;;;;;18.48;56.20;98517.94;5090975;28;20394;-94
2022/07/01 02:43:19;;;;;;;5.65;2.90;;;;;;;18.48;56.46;98514.41;5090539;28;20060;-93
2022/07/01 02:45:46;;;;;;;5.55;2.97;;;;;;;18.37;56.75;98498.06;5090526;28;20045;-94
2022/07/01 02:48:12;;;;;;;5.00;2.97;;;;;;;18.52;56.58;98529.41;5079842;28;20115;-94
2022/07/01 02:50:38;;;;;;;5.53;3.13;;;;;;;18.42;57.35;98522.84;5076714;28;20052;-94
2022/07/01 02:53:03;;;;;;;5.97;3.00;;;;;;;18.40;57.81;98522.09;5076839;28;20037;-93
2022/07/01 02:55:29;;;;;;;6.57;3.00;;;;;;;18.27;57.45;98517.47;5076921;28;20127;-93
2022/07/01 02:57:55;;;;;;;6.43;3.38;;;;;;;18.29;57.63;98521.91;5076360;28;20070;-95
2022/07/01 03:00:22;;;;;;;6.68;3.10;;;;;;;18.18;58.46;98520.75;5076510;28;20047;-94
2022/07/01 03:02:49;;;;;;;7.57;3.25;;;;;;;18.26;58.55;98533.72;5076553;28;20040;-93
2022/07/01 03:05:15;;;;;;;5.95;3.00;;;;;;;18.19;57.96;98519.75;5081508;28;20044;-95
2022/07/01 03:07:41;;;;;;;6.72;3.10;;;;;;;18.22;57.82;98533.03;5090823;28;20036;-94
2022/07/01 03:10:08;;;;;;;5.30;3.25;;;;;;;18.05;58.29;98526.00;5076565;28;20055;-93
2022/07/01 03:12:35;;;;;;;6.53;3.00;;;;;;;18.04;58.38;98536.84;5076126;28;20045;-94
2022/07/01 03:15:03;;;;;;;5.95;3.30;;;;;;;17.97;58.37;98546.28;5076623;28;20044;-93
2022/07/01 03:17:31;;;;;;;4.75;3.33;;;;;;;18.07;59.07;98585.13;5076080;28;20048;-93
2022/07/01 03:19:59;;;;;;;4.45;3.08;;;;;;;17.94;59.03;98568.00;5076188;28;20040;-93
2022/07/01 03:22:30;;;;;;;5.65;3.03;;;;;;;17.99;59.35;98593.66;5076389;28;20052;-93
2022/07/01 03:24:57;;;;;;;7.65;3.50;;;;;;;18.06;58.90;98612.97;5075968;28;20051;-93
2022/07/01 03:27:24;;;;;;;4.47;3.13;;;;;;;17.89;59.74;98608.63;5076131;28;20386;-93
2022/07/01 03:29:50;;;;;;;7.15;3.17;;;;;;;17.86;59.26;98604.28;5076420;28;20525;-93
2022/07/01 03:32:17;;;;;;;5.57;2.92;;;;;;;17.81;59.95;98600.97;5075985;28;20048;-94
2022/07/01 03:34:44;;;;;;;7.45;3.42;;;;;;;17.85;59.93;98613.31;5076145;28;20032;-93
2022/07/01 03:37:13;;;;;;;6.68;3.35;;;;;;;17.77;59.76;98607.47;5075770;28;20140;-95
2022/07/01 03:39:40;;;;;;;6.00;3.53;;;;;;;17.79;60.26;98616.31;5076099;28;20498;-93
2022/07/01 03:42:07;;;;;;;6.00;3.38;;;;;;;17.76;59.95;98603.06;5076163;28;20044;-92
2022/07/01 03:44:33;;;;;;;5.28;3.53;;;;;;;17.65;60.67;98606.41;5075902;28;20052;-94
2022/07/01 03:46:59;;;;;;;5.80;3.65;;;;;;;17.79;60.43;98632.47;5075780;28;20048;-94
2022/07/01 03:49:25;;;;;;;8.68;3.63;;;;;;;17.70;60.74;98608.81;5075770;28;20051;-93
2022/07/01 03:51:51;;;;;;;5.65;3.75;;;;;;;17.65;61.27;98614.47;5076026;28;20044;-95
2022/07/01 03:57:19;;;;;;;7.40;3.70;;;;;;;17.64;62.28;98641.44;5133056;27;20383;-94
2022/07/01 03:59:46;;;;;;;11.10;5.03;;;;;;;17.73;62.42;98648.09;5132779;27;20054;-94
2022/07/01 04:02:12;;;;;;;16.73;6.60;;;;;;;17.72;62.65;98649.94;5132522;28;20043;-95
2022/07/01 04:04:37;;;;;;;14.13;5.97;;;;;;;17.70;61.99;98635.69;5132514;28;20039;-94
2022/07/01 04:07:07;;;;;;;11.45;6.15;;;;;;;17.81;61.98;98656.59;5132518;27;20067;-94
2022/07/01 04:09:33;;;;;;;12.35;4.85;;;;;;;17.83;61.96;98652.03;5132775;27;20043;-94
2022/07/01 04:11:59;;;;;;;9.73;4.82;;;;;;;17.85;61.64;98648.28;5132331;27;20050;-93
2022/07/01 04:14:26;;;;;;;7.43;3.80;;;;;;;17.95;59.78;98631.59;5132388;28;20043;-95
2022/07/01 04:16:53;;;;;;;7.78;3.70;;;;;;;17.92;58.91;98632.63;5132236;27;20135;-93
2022/07/01 04:19:19;;;;;;;6.57;3.40;;;;;;;17.96;59.67;98641.41;5134438;27;20050;-94
2022/07/01 04:24:44;;;;;;;5.78;3.33;;;;;;;18.10;59.11;98630.66;5051950;27;20389;-94
2022/07/01 04:27:11;;;;;;;5.80;3.72;;;;;;;18.13;59.61;98627.81;5052623;28;20544;-93
2022/07/01 04:29:37;;;;;;;7.32;3.47;;;;;;;18.11;59.72;98637.81;5051705;28;20041;-94
2022/07/01 04:32:03;;;;;;;6.32;3.55;;;;;;;18.32;61.29;98657.16;5051291;28;20044;-93
2022/07/01 04:34:29;;;;;;;6.90;3.50;;;;;;;18.33;61.63;98647.28;5065495;28;20041;-93
2022/07/01 04:36:55;;;;;;;4.50;3.10;;;;;;;18.38;61.53;98650.53;5051364;28;20048;-93
2022/07/01 04:39:21;;;;;;;5.78;3.00;;;;;;;18.23;61.86;98631.66;5051349;28;20049;-94
2022/07/01 04:44:49;;;;;;;5.95;3.63;;;;;;;18.32;61.77;98640.13;5091916;27;20358;-93
2022/07/01 04:47:14;;;;;;;7.88;3.42;;;;;;;18.36;61.95;98633.63;5091823;28;20051;-93
2022/07/01 04:49:40;;;;;;;5.55;3.63;;;;;;;18.50;62.09;98639.03;5088270;28;20045;-93
2022/07/01 04:52:06;;;;;;;7.10;3.33;;;;;;;18.64;61.61;98636.34;5078934;28;20052;-93
2022/07/01 04:54:32;;;;;;;6.53;3.75;;;;;;;18.83;60.69;98629.84;5091446;28;20044;-94
2022/07/01 04:56:58;;;;;;;9.15;3.72;;;;;;;19.31;60.14;98622.25;5091607;28;20131;-95
2022/07/01 04:59:24;;;;;;;6.63;3.33;;;;;;;19.90;57.85;98613.88;5091755;28;20036;-95
2022/07/01 05:01:51;;;;;;;5.40;3.40;;;;;;;20.42;56.17;98617.53;5092101;28;20036;-92
2022/07/01 05:04:17;;;;;;;6.70;3.83;;;;;;;20.84;55.08;98623.59;5091824;28;20131;-94
2022/07/01 05:06:43;;;;;;;9.13;3.50;;;;;;;21.09;55.28;98607.34;5091789;28;20040;-94
2022/07/01 05:09:09;;;;;;;4.50;3.40;;;;;;;21.47;53.80;98603.69;5092720;28;20047;-92
2022/07/01 05:11:35;;;;;;;6.13;3.40;;;;;;;21.73;52.65;98596.31;5091325;28;20048;-93
2022/07/01 05:14:01;;;;;;;7.57;3.90;;;;;;;22.37;51.47;98605.06;5091548;28;20449;-96
2022/07/01 05:16:27;;;;;;;5.57;3.30;;;;;;;22.69;51.60;98618.78;5091293;28;20041;-94
2022/07/01 05:21:55;;;;;;;10.10;3.90;;;;;;;23.37;49.30;98606.06;5166916;27;20421;-95
2022/07/01 05:24:22;;;;;;;5.65;3.60;;;;;;;23.45;50.38;98591.88;5133085;27;20047;-93
2022/07/01 05:26:48;;;;;;;7.93;3.67;;;;;;;23.47;49.00;98550.06;5124778;28;20054;-94
2022/07/01 05:29:15;;;;;;;6.25;3.53;;;;;;;22.99;48.28;98544.97;5114655;28;20036;-91
2022/07/01 05:31:41;;;;;;;9.35;4.00;;;;;;;22.09;51.52;98569.25;5120544;28;20400;-92
2022/07/01 05:34:06;;;;;;;7.75;3.92;;;;;;;21.98;50.92;98580.91;5123724;28;20040;-93
2022/07/01 05:36:32;;;;;;;6.72;4.10;;;;;;;21.76;50.64;98549.22;5126618;28;20032;-94
2022/07/01 05:39:00;;;;;;;6.25;3.50;;;;;;;22.09;49.64;98575.53;5118845;28;20040;-92
2022/07/01 05:41:26;;;;;;;6.18;3.80;;;;;;;22.55;48.95;98561.13;5119484;28;20028;-93
2022/07/01 05:43:52;;;;;;;7.45;3.60;;;;;;;22.83;47.51;98548.03;5114085;28;20562;-91
2022/07/01 05:46:17;;;;;;;6.15;3.60;;;;;;;23.13;46.21;98563.69;5123721;27;20066;-93
2022/07/01 05:48:43;;;;;;;6.35;3.90;;;;;;;22.86;46.12;98577.63;5116751;28;20460;-93
2022/07/01 05:51:09;;;;;;;4.97;3.47;;;;;;;23.19;46.71;98575.03;5124742;28;20412;-93
2022/07/01 05:53:35;;;;;;;6.55;3.65;;;;;;;23.63;46.41;98579.47;5114557;27;20093;-95
2022/07/01 05:56:02;;;;;;;10.00;3.95;;;;;;;23.90;43.78;98532.88;5118096;28;20123;-94
2022/07/01 05:58:28;;;;;;;9.18;4.13;;;;;;;24.06;43.54;98553.28;5129607;27;20400;-95
2022/07/01 06:00:54;;;;;;;6.43;4.15;;;;;;;23.92;43.46;98524.56;5123262;27;20039;-92
2022/07/01 06:03:19;;;;;;;6.10;3.83;;;;;;;24.23;43.25;98539.09;5130292;27;20065;-94
2022/07/01 06:05:45;;;;;;;7.35;3.60;;;;;;;24.26;43.95;98508.94;5111298;28;20108;-93
2022/07/01 06:08:11;;;;;;;5.93;3.47;;;;;;;24.19;43.27;98494.16;5119271;28;20516;-93
2022/07/01 06:10:37;;;;;;;7.03;3.70;;;;;;;23.95;43.92;98481.72;5120924;28;20047;-92
2022/07/01 06:13:06;;;;;;;6.13;3.53;;;;;;;23.21;45.51;98487.13;5121262;27;20396;-93
2022/07/01 06:15:32;;;;;;;6.55;3.55;;;;;;;23.44;44.80;98509.59;5116869;27;20408;-89
2022/07/01 06:17:57;;;;;;;5.88;3.58;;;;;;;23.70;44.08;98509.22;5115303;27;20049;-93
2022/07/01 06:20:23;;;;;;;6.07;3.60;;;;;;;23.98;43.91;98505.91;5131880;28;20424;-94
2022/07/01 06:22:52;;;;;;;8.43;3.70;;;;;;;24.46;41.70;98506.31;5120446;27;20044;-92
2022/07/01 06:25:18;;;;;;;6.10;3.33;;;;;;;24.34;42.36;98513.69;5114170;28;20044;-95
2022/07/01 06:27:45;;;;;;;6.47;3.20;;;;;;;24.84;40.89;98508.38;5111156;28;20036;-94
2022/07/01 06:30:13;;;;;;;5.40;4.07;;;;;;;25.25;41.42;98492.03;5111072;28;20036;-94
2022/07/01 06:32:39;;;;;;;6.95;3.70;;;;;;;24.86;42.92;98481.03;5112832;28;20039;-92
2022/07/01 06:35:07;;;;;;;8.88;3.90;;;;;;;24.88;41.91;98479.03;5109112;28;20059;-90
2022/07/01 06:37:35;;;;;;;6.82;3.53;;;;;;;24.96;41.77;98458.31;5106896;28;20032;-94
2022/07/01 06:40:02;;;;;;;8.10;3.47;;;;;;;25.20;42.16;98457.09;5107195;28;20121;-90
2022/07/01 06:42:28;;;;;;;8.60;3.65;;;;;;;24.94;41.05;98434.94;5105944;28;20127;-91
2022/07/01 06:44:53;;;;;;;8.93;3.70;;;;;;;24.73;42.03;98464.97;5105689;28;20127;-95
2022/07/01 06:47:21;;;;;;;7.05;3.60;;;;;;;25.11;41.16;98464.19;5108822;27;20048;-93
2022/07/01 06:49:47;;;;;;;6.18;3.80;;;;;;;25.02;41.40;98462.31;5099049;28;20122;-94
2022/07/01 06:52:13;;;;;;;5.25;3.50;;;;;;;25.13;40.84;98447.72;5103856;28;20070;-94
2022/07/01 06:54:39;;;;;;;5.90;3.40;;;;;;;25.36;39.92;98434.72;5108726;28;20560;-95
2022/07/01 06:57:06;;;;;;;6.57;3.60;;;;;;;25.00;40.51;98446.13;5110988;28;20043;-89
2022/07/01 06:59:32;;;;;;;7.25;3.53;;;;;;;25.23;39.40;98454.06;5102359;28;20047;-89
2022/07/01 07:01:58;;;;;;;6.72;3.72;;;;;;;25.29;39.97;98439.88;5109193;28;20040;-90
2022/07/01 07:04:25;;;;;;;9.52;4.55;;;;;;;25.70;40.03;98442.44;5102302;28;20038;-93
2022/07/01 07:06:51;;;;;;;6.60;3.58;;;;;;;25.66;38.42;98443.75;5104287;28;20036;-92
2022/07/01 07:09:16;;;;;;;10.38;4.03;;;;;;;25.85;38.20;98427.38;5101589;28;20123;-94
2022/07/01 07:11:42;;;;;;;7.38;3.70;;;;;;;26.12;37.52;98412.97;5097633;28;20067;-93
2022/07/01 07:14:18;;;;;;;6.15;3.17;;;;;;;26.58;37.49;98415.81;5097142;28;20047;-95
2022/07/01 07:16:44;;;;;;;5.32;3.25;;;;;;;26.99;36.38;98427.19;5096546;28;20044;-96
2022/07/01 07:19:10;;;;;;;8.30;3.55;;;;;;;27.30;36.54;98440.50;5096424;28;20102;-94
2022/07/01 07:21:38;;;;;;;6.93;3.65;;;;;;;27.54;35.69;98457.13;5096288;28;20102;-95
2022/07/01 07:24:04;;;;;;;11.02;3.30;;;;;;;27.74;34.23;98457.81;5099199;28;20040;-95
2022/07/01 07:26:31;;;;;;;8.23;3.38;;;;;;;27.94;35.37;98457.66;5097448;28;20044;-94
2022/07/01 07:28:57;;;;;;;5.97;3.13;;;;;;;28.17;35.19;98464.31;5097121;28;20103;-95
2022/07/01 07:31:22;;;;;;;7.20;3.67;;;;;;;28.17;33.64;98439.72;5097346;28;20458;-95
2022/07/01 07:33:48;;;;;;;6.95;3.13;;;;;;;28.37;33.03;98437.59;5098914;28;20048;-95
2022/07/01 07:36:14;;;;;;;5.90;3.50;;;;;;;28.51;33.51;98451.69;5098766;28;20448;-95
2022/07/01 07:38:41;;;;;;;6.40;2.95;;;;;;;28.65;33.33;98454.69;5098594;28;20052;-96
2022/07/01 07:41:10;;;;;;;8.93;3.53;;;;;;;28.80;32.90;98445.81;5099404;28;20465;-96
2022/07/01 07:43:36;;;;;;;9.13;3.30;;;;;;;28.95;32.66;98466.09;5096454;28;20059;-95
2022/07/01 07:46:03;;;;;;;7.72;3.33;;;;;;;28.72;33.44;98464.97;5100887;28;20071;-90
2022/07/01 07:48:28;;;;;;;8.27;3.70;;;;;;;28.34;32.49;98467.13;5106864;28;20043;-90
2022/07/01 07:50:54;;;;;;;8.18;3.63;;;;;;;28.46;32.55;98447.53;5102634;28;20367;-92
2022/07/01 07:53:20;;;;;;;8.38;3.65;;;;;;;28.57;33.15;98443.69;5103774;28;20039;-96
2022/07/01 07:55:47;;;;;;;8.50;3.47;;;;;;;28.66;33.83;98439.97;5099188;27;20044;-94
2022/07/01 07:58:13;;;;;;;6.28;3.30;;;;;;;28.94;33.15;98426.03;5098927;28;20097;-94
2022/07/01 08:00:38;;;;;;;8.20;3.55;;;;;;;29.34;32.55;98440.00;5099184;28;20032;-93
2022/07/01 08:03:04;;;;;;;8.82;3.60;;;;;;;29.46;31.71;98441.41;5106856;28;20048;-91
2022/07/01 08:05:30;;;;;;;8.38;3.65;;;;;;;29.45;31.55;98409.53;5111606;28;20406;-95
2022/07/01 08:07:56;;;;;;;10.95;3.35;;;;;;;29.87;31.34;98441.44;5116097;28;20036;-95
2022/07/01 08:10:21;;;;;;;6.25;3.15;;;;;;;29.99;29.37;98433.69;5112919;28;20036;-94
2022/07/01 08:12:50;;;;;;;6.20;3.17;;;;;;;29.73;28.07;98428.41;5096682;28;20085;-94
2022/07/01 08:15:16;;;;;;;6.68;2.85;;;;;;;29.27;27.61;98428.88;5109693;28;20043;-94
2022/07/01 08:17:42;;;;;;;5.90;2.95;;;;;;;29.63;30.46;98421.19;5116408;28;20048;-94
2022/07/01 08:20:09;;;;;;;4.22;2.45;;;;;;;29.84;26.12;98414.34;5101089;28;20089;-94
2022/07/01 08:22:34;;;;;;;6.72;2.80;;;;;;;30.17;27.66;98445.34;5101552;28;20059;-96
2022/07/01 08:25:02;;;;;;;4.57;3.05;;;;;;;30.41;28.04;98444.44;5119129;28;20175;-94
2022/07/01 08:27:28;;;;;;;8.60;3.10;;;;;;;30.51;27.25;98425.00;5118177;28;20036;-94
2022/07/01 08:29:55;;;;;;;5.63;2.70;;;;;;;30.79;26.63;98424.56;5095989;28;20092;-94
2022/07/01 08:32:24;;;;;;;5.10;3.05;;;;;;;30.54;26.94;98440.28;5096571;28;20044;-94
2022/07/01 08:34:51;;;;;;;7.20;3.20;;;;;;;30.45;27.24;98412.88;5096661;28;20059;-96
2022/07/01 08:37:17;;;;;;;4.53;2.90;;;;;;;30.49;27.55;98408.75;5100816;28;20040;-93
2022/07/01 08:39:43;;;;;;;6.63;3.03;;;;;;;30.48;26.77;98409.78;5117291;28;20051;-94
2022/07/01 08:42:09;;;;;;;8.32;3.00;;;;;;;30.45;26.55;98437.56;5105695;28;20039;-95
2022/07/01 08:44:34;;;;;;;11.55;3.25;;;;;;;30.82;27.12;98447.03;5102733;28;20582;-95
2022/07/01 08:47:02;;;;;;;7.97;3.15;;;;;;;30.89;26.56;98438.97;5096943;28;20548;-94
2022/07/01 08:49:28;;;;;;;4.90;2.85;;;;;;;30.90;26.47;98427.81;5112534;28;20419;-94
2022/07/01 08:51:54;;;;;;;5.55;2.88;;;;;;;31.12;25.96;98422.50;5118237;28;20040;-95
2022/07/01 08:54:20;;;;;;;4.50;2.80;;;;;;;31.30;24.66;98416.75;5103286;28;20424;-95
2022/07/01 08:56:46;;;;;;;5.70;2.70;;;;;;;31.56;23.93;98432.03;5116846;28;20083;-96
2022/07/01 08:59:20;;;;;;;5.00;2.70;;;;;;;31.61;25.02;98410.34;5118446;28;20071;-94
2022/07/01 09:01:46;;;;;;;4.38;2.38;;;;;;;31.85;24.47;98421.13;5108430;28;20103;-93
2022/07/01 09:04:16;;;;;;;7.03;2.60;;;;;;;31.66;23.51;98425.25;5117103;28;20082;-96
2022/07/01 09:06:42;;;;;;;11.57;2.75;;;;;;;31.63;24.41;98403.63;5116692;28;20051;-95
2022/07/01 09:09:11;;;;;;;4.93;2.80;;;;;;;31.85;23.63;98429.38;5105378;28;20044;-95
2022/07/01 09:11:44;;;;;;;7.88;2.80;;;;;;;31.99;23.17;98418.59;5098906;28;20051;-95
2022/07/01 09:14:11;;;;;;;5.43;2.85;;;;;;;32.19;22.99;98440.94;5096709;28;20039;-95
2022/07/01 09:16:41;;;;;;;5.00;2.88;;;;;;;32.10;23.61;98451.19;5096456;28;20105;-95
2022/07/01 09:19:07;;;;;;;5.03;2.45;;;;;;;32.25;23.66;98432.78;5104582;28;20040;-95
2022/07/01 09:21:35;;;;;;;5.05;2.67;;;;;;;32.01;23.91;98420.16;5104761;28;20040;-94
2022/07/01 09:24:04;;;;;;;5.60;2.58;;;;;;;32.26;22.59;98423.47;5101903;28;20123;-92
2022/07/01 09:26:30;;;;;;;5.13;2.45;;;;;;;32.12;21.96;98411.44;5100077;28;20113;-96
2022/07/01 09:28:59;;;;;;;4.88;2.25;;;;;;;32.25;21.67;98435.53;5105254;28;20040;-95
2022/07/01 09:31:32;;;;;;;4.10;2.50;;;;;;;31.48;22.29;98444.78;5101851;28;20111;-92
2022/07/01 09:34:07;;;;;;;4.50;2.40;;;;;;;31.55;22.92;98430.31;5101204;28;20055;-94
2022/07/01 09:36:40;;;;;;;5.40;2.60;;;;;;;31.97;22.56;98434.41;5108388;28;20062;-94
2022/07/01 09:39:06;;;;;;;6.43;2.55;;;;;;;32.05;21.66;98426.97;5098787;28;20502;-96
2022/07/01 09:41:38;;;;;;;5.65;2.42;;;;;;;32.32;20.57;98432.91;5110669;28;20039;-93
2022/07/01 09:44:04;;;;;;;4.97;2.30;;;;;;;32.38;21.16;98434.00;5107769;28;20165;-94
2022/07/01 09:46:30;;;;;;;4.93;2.20;;;;;;;32.44;19.52;98442.38;5097309;28;20123;-95
2022/07/01 09:48:56;;;;;;;3.08;2.30;;;;;;;32.22;19.54;98438.66;5099517;28;20071;-95
2022/07/01 09:51:22;;;;;;;5.78;2.30;;;;;;;32.50;20.33;98407.72;5108597;28;20059;-94
2022/07/01 09:53:49;;;;;;;4.93;2.60;;;;;;;32.78;20.63;98418.09;5106850;28;20040;-95
2022/07/01 09:56:15;;;;;;;5.37;2.17;;;;;;;33.07;22.05;98433.72;5108006;28;20093;-95
2022/07/01 09:58:42;;;;;;;4.07;2.30;;;;;;;33.06;20.49;98412.72;5109406;28;20047;-95
2022/07/01 10:01:09;;;;;;;3.20;2.30;;;;;;;33.44;20.60;98431.78;5115604;28;20516;-96
2022/07/01 10:03:37;;;;;;;5.53;2.60;;;;;;;33.52;21.07;98423.41;5116570;28;20035;-94
2022/07/01 10:06:27;;;;;;;5.22;2.50;;;;;;;33.63;20.45;98419.28;5108093;28;20492;-95
2022/07/01 10:09:08;;;;;;;4.65;2.70;;;;;;;33.69;20.28;98415.75;5099704;28;20123;-94
2022/07/01 10:11:52;;;;;;;4.78;2.70;;;;;;;33.70;20.48;98415.56;5105359;28;20053;-95
2022/07/01 10:14:19;;;;;;;4.43;2.53;;;;;;;33.74;20.40;98418.75;5101768;28;20048;-96
2022/07/01 10:16:48;;;;;;;5.45;2.70;;;;;;;33.69;21.65;98405.56;5097262;28;20400;-95
2022/07/01 10:19:28;;;;;;;7.10;2.67;;;;;;;33.87;20.67;98409.72;5078903;28;20047;-95
2022/07/01 10:21:56;;;;;;;3.95;2.75;;;;;;;33.64;20.27;98416.34;5082851;28;20045;-94
2022/07/01 10:24:25;;;;;;;5.15;2.45;;;;;;;33.84;20.49;98413.75;5107924;28;20074;-94
2022/07/01 10:26:52;;;;;;;7.95;2.70;;;;;;;34.16;20.33;98414.25;5108561;28;20080;-96
2022/07/01 10:29:29;;;;;;;4.57;2.60;;;;;;;33.52;21.03;98395.81;5111852;28;20040;-95
2022/07/01 10:32:01;;;;;;;4.50;2.72;;;;;;;32.89;21.38;98423.94;5119234;28;20076;-96
2022/07/01 10:34:34;;;;;;;6.35;2.80;;;;;;;32.81;21.86;98417.69;5104708;28;20044;-95
2022/07/01 10:37:02;;;;;;;5.80;2.70;;;;;;;32.40;22.16;98438.31;5101437;28;20082;-95
2022/07/01 10:39:29;;;;;;;;;;;;;;;32.08;22.86;98428.50;5109924;28;20035;-94
2022/07/01 10:41:58;;;;;;;4.63;2.60;;;;;;;32.03;23.00;98423.56;5101963;28;20274;-94
2022/07/01 10:44:25;;;;;;;4.85;2.72;;;;;;;32.77;22.30;98397.09;5097720;28;20047;-95
2022/07/01 10:46:59;;;;;;;5.63;2.80;;;;;;;33.21;22.08;98393.41;5102130;28;20039;-95
2022/07/01 10:49:52;;;;;;;5.20;2.80;;;;;;;34.08;21.79;98411.59;5101855;28;20359;-93
2022/07/01 10:52:18;;;;;;;6.70;2.90;;;;;;;34.12;20.62;98405.50;5111354;28;20051;-94
2022/07/01 10:54:53;;;;;;;5.50;2.70;;;;;;;34.15;21.01;98401.47;5104077;28;20164;-93
2022/07/01 10:57:31;;;;;;;5.38;2.97;;;;;;;34.35;21.21;98407.13;5103586;28;20074;-95
2022/07/01 11:00:31;;;;;;;4.57;2.88;;;;;;;33.99;21.16;98397.09;5106183;28;20063;-94
2022/07/01 11:03:07;;;;;;;3.53;2.45;;;;;;;33.33;20.93;98389.06;5106050;28;20039;-93
2022/07/01 11:05:35;;;;;;;7.07;2.90;;;;;;;32.68;21.96;98382.59;5110457;28;20489;-94
2022/07/01 11:08:01;;;;;;;4.55;3.05;;;;;;;32.73;22.69;98380.97;5119217;28;20043;-96
2022/07/01 11:10:29;;;;;;;4.45;2.80;;;;;;;32.59;22.28;98381.00;5110961;28;20046;-94
2022/07/01 11:12:55;;;;;;;8.03;2.70;;;;;;;33.13;22.32;98370.41;5107808;28;20044;-92
2022/07/01 11:15:22;;;;;;;7.55;2.80;;;;;;;33.24;21.34;98357.19;5100224;28;20272;-92
2022/07/01 11:17:49;;;;;;;4.25;2.78;;;;;;;33.52;22.68;98360.00;5109595;28;20048;-94
2022/07/01 11:20:16;;;;;;;6.32;2.60;;;;;;;33.96;21.64;98392.84;5112365;28;20048;-93
2022/07/01 11:22:42;;;;;;;6.28;2.80;;;;;;;34.48;19.26;98381.50;5099097;28;20054;-93
2022/07/01 11:25:10;;;;;;;3.85;2.70;;;;;;;34.72;19.01;98374.63;5099338;28;20568;-93
2022/07/01 11:27:38;;;;;;;3.58;2.38;;;;;;;34.51;18.84;98359.88;5096601;28;20043;-93
2022/07/01 11:30:08;;;;;;;4.75;2.58;;;;;;;34.36;18.20;98376.56;5104743;28;20040;-92
2022/07/01 11:32:36;;;;;;;6.60;2.72;;;;;;;34.14;18.75;98367.53;5118242;28;20055;-94
2022/07/01 11:39:21;;;;;;;4.35;2.50;;;;;;;33.93;19.12;98370.31;5100902;28;20051;-91
2022/07/01 11:40:53;;;;;;;4.70;2.53;;;;;;;34.35;18.05;98352.78;5135112;27;20383;-92
2022/07/01 11:43:22;;;;;;;3.60;2.47;;;;;;;34.42;18.17;98371.28;5123868;27;20040;-92
2022/07/01 11:45:48;;;;;;;6.25;2.72;;;;;;;34.26;18.81;98364.19;5123644;27;20066;-92
2022/07/01 11:48:38;;;;;;;5.00;2.60;;;;;;;34.01;18.25;98372.09;5132697;27;20454;-93
2022/07/01 11:51:12;;;;;;;4.43;2.80;;;;;;;34.21;18.98;98370.31;5134097;27;20046;-92
2022/07/01 11:53:39;;;;;;;3.95;2.55;;;;;;;34.36;18.29;98375.72;5135069;27;20504;-90